Terminal Aerodrome Forecast
Issued by NWS

Home | Current Version | Previous Version | Text Only | Print | Product List | Glossary On
Versions: 1 2 3 4 5 6 7 8 9 10 11 12 13 14 15 16 17 18 19 20 21 22 23 24 25 26 27 28 29 30 31 32 33 34 35 36 37 38
000
FTAK31 PAFA 161958 AAC
TAFATA
TAF AMD
PATA 161958Z 1620/1718 11004KT P6SM BCFG VCSH SCT003 OVC070
      TEMPO 1620/1622 BKN003 OVC070
     FM170000 VRB03KT P6SM BKN050 OVC100
     FM170600 VRB02KT P6SM VCFG SCT100
     FM171700 10006KT P6SM SKC=

USA.gov is the U.S. government's official web portal to all federal, state and local government web resources and services.